createdAt,value
2022-11-29T00:01:35.922Z,7.20
2022-11-29T00:04:05.892Z,7.20
2022-11-29T00:06:36.033Z,7.20
2022-11-29T00:09:07.626Z,7.20
2022-11-29T00:11:54.928Z,7.20
2022-11-29T00:14:24.390Z,7.20
2022-11-29T00:16:54.663Z,7.20
2022-11-29T00:19:24.347Z,7.10
2022-11-29T00:21:52.600Z,7.20
2022-11-29T00:24:21.140Z,7.20
2022-11-29T00:26:49.538Z,7.20
2022-11-29T00:29:17.922Z,7.10
2022-11-29T00:31:46.725Z,7.00
2022-11-29T00:34:15.164Z,7.00
2022-11-29T00:36:44.742Z,7.00
2022-11-29T00:39:13.689Z,7.00
2022-11-29T00:41:41.971Z,7.00
2022-11-29T00:44:15.326Z,7.00
2022-11-29T00:46:46.775Z,7.00
2022-11-29T00:49:15.037Z,7.10
2022-11-29T00:51:44.601Z,7.10
2022-11-29T00:54:12.886Z,7.10
2022-11-29T00:56:41.076Z,7.20
2022-11-29T00:59:10.084Z,7.20
2022-11-29T01:01:38.282Z,7.20
2022-11-29T01:04:06.746Z,7.20
2022-11-29T01:06:34.946Z,7.20
2022-11-29T01:09:04.775Z,7.20
2022-11-29T01:11:32.991Z,7.20
2022-11-29T01:14:03.192Z,7.20
2022-11-29T01:16:32.714Z,7.30
2022-11-29T01:19:01.050Z,7.30
2022-11-29T01:21:29.482Z,7.20
2022-11-29T01:23:58.265Z,7.10
2022-11-29T01:26:30.328Z,7.10
2022-11-29T01:28:59.287Z,7.10
2022-11-29T01:31:29.730Z,7.00
2022-11-29T01:34:00.381Z,7.00
2022-11-29T01:36:28.981Z,6.90
2022-11-29T01:38:57.251Z,7.00
2022-11-29T01:41:28.964Z,6.90
2022-11-29T01:44:02.446Z,6.90
2022-11-29T01:46:33.197Z,6.90
2022-11-29T01:49:06.556Z,6.80
2022-11-29T01:51:36.973Z,6.90
2022-11-29T01:54:06.078Z,6.90
2022-11-29T01:56:36.679Z,6.90
2022-11-29T01:59:08.914Z,6.90
2022-11-29T02:01:37.949Z,6.90
2022-11-29T02:04:07.112Z,6.90
2022-11-29T02:06:36.349Z,6.90
2022-11-29T02:09:04.814Z,6.80
2022-11-29T02:12:01.471Z,6.90
2022-11-29T02:14:48.695Z,6.90
2022-11-29T02:17:26.058Z,6.80
2022-11-29T02:20:32.290Z,6.80
2022-11-29T02:23:08.886Z,6.80
2022-11-29T02:25:53.160Z,6.80
2022-11-29T02:28:51.060Z,6.80
2022-11-29T02:31:59.470Z,6.70
2022-11-29T02:34:55.595Z,6.80
2022-11-29T02:37:48.558Z,6.80
2022-11-29T02:40:32.483Z,6.70
2022-11-29T02:43:28.023Z,6.80
2022-11-29T02:46:11.231Z,6.90
2022-11-29T02:48:56.888Z,6.90
2022-11-29T02:51:32.964Z,6.80
2022-11-29T02:54:07.488Z,6.80
2022-11-29T02:56:41.999Z,6.80
2022-11-29T02:59:17.956Z,6.80
2022-11-29T03:01:54.501Z,6.80
2022-11-29T03:04:29.968Z,6.70
2022-11-29T03:07:06.726Z,6.80
2022-11-29T03:09:41.152Z,6.90
2022-11-29T03:12:19.983Z,6.90
2022-11-29T03:14:58.354Z,6.80
2022-11-29T03:17:38.791Z,6.80
2022-11-29T03:20:24.547Z,6.70
2022-11-29T03:23:10.951Z,6.70
2022-11-29T03:25:43.264Z,6.70
2022-11-29T03:28:16.388Z,6.70
2022-11-29T03:30:50.166Z,6.70
2022-11-29T03:33:25.930Z,6.70
2022-11-29T03:36:01.760Z,6.70
2022-11-29T03:38:40.004Z,6.70
2022-11-29T03:41:18.856Z,6.70
2022-11-29T03:43:53.377Z,6.70
2022-11-29T03:46:30.132Z,6.70
2022-11-29T03:49:04.610Z,6.70
2022-11-29T03:51:50.498Z,6.70
2022-11-29T03:54:26.672Z,6.70
2022-11-29T03:56:55.896Z,6.70
2022-11-29T03:59:35.442Z,6.60
2022-11-29T04:02:40.697Z,6.70
2022-11-29T04:05:35.490Z,6.60
2022-11-29T04:08:46.435Z,6.60
2022-11-29T04:11:59.251Z,6.60
2022-11-29T04:14:45.899Z,6.50
2022-11-29T04:17:55.819Z,6.50
2022-11-29T04:20:56.639Z,6.50
2022-11-29T04:23:46.735Z,6.70
2022-11-29T04:26:49.119Z,6.40
2022-11-29T04:29:29.864Z,6.40
2022-11-29T04:32:20.938Z,6.50
2022-11-29T04:35:02.891Z,6.40
2022-11-29T04:38:04.951Z,6.40
2022-11-29T04:40:54.752Z,6.50
2022-11-29T04:44:02.279Z,6.50
2022-11-29T04:46:58.892Z,6.50
2022-11-29T04:49:49.469Z,6.50
2022-11-29T04:52:43.839Z,6.50
2022-11-29T04:55:30.486Z,6.50
2022-11-29T04:58:04.702Z,6.40
2022-11-29T05:00:46.727Z,6.50
2022-11-29T05:03:26.616Z,6.50
2022-11-29T05:06:01.750Z,6.50
2022-11-29T05:08:41.303Z,6.50
2022-11-29T05:11:18.863Z,6.60
2022-11-29T05:13:57.394Z,6.60
2022-11-29T05:16:47.221Z,6.60
2022-11-29T05:19:30.731Z,6.60
2022-11-29T05:22:07.509Z,6.60
2022-11-29T05:24:53.657Z,6.70
2022-11-29T05:27:32.330Z,6.60
2022-11-29T05:30:09.197Z,6.60
2022-11-29T05:32:52.228Z,6.60
2022-11-29T05:35:48.463Z,6.70
2022-11-29T05:38:32.001Z,6.70
2022-11-29T05:41:14.578Z,6.70
2022-11-29T05:44:04.712Z,6.70
2022-11-29T05:46:41.049Z,6.70
2022-11-29T05:49:22.215Z,6.70
2022-11-29T05:51:59.508Z,6.80
2022-11-29T05:54:33.689Z,6.80
2022-11-29T05:57:11.780Z,6.90
2022-11-29T05:59:42.319Z,6.90
2022-11-29T06:02:21.851Z,7.00
2022-11-29T06:05:04.645Z,7.00
2022-11-29T06:07:40.339Z,7.00
2022-11-29T06:10:13.771Z,7.00
2022-11-29T06:12:44.761Z,7.10
2022-11-29T06:15:47.590Z,7.10
2022-11-29T06:18:29.931Z,7.20
2022-11-29T06:21:17.008Z,7.20
2022-11-29T06:24:10.356Z,7.20
2022-11-29T06:26:50.936Z,7.20
2022-11-29T06:29:26.008Z,7.30
2022-11-29T06:32:01.712Z,7.20
2022-11-29T06:34:40.365Z,7.20
2022-11-29T06:37:18.339Z,7.10
2022-11-29T06:39:46.983Z,7.20
2022-11-29T06:42:15.146Z,7.20
2022-11-29T06:44:44.169Z,7.20
2022-11-29T06:47:20.375Z,7.20
2022-11-29T06:49:52.263Z,7.20
2022-11-29T06:52:32.097Z,7.20
2022-11-29T06:55:15.439Z,7.20
2022-11-29T06:58:01.803Z,7.30
2022-11-29T07:00:38.589Z,7.30
2022-11-29T07:03:39.153Z,7.20
2022-11-29T07:06:16.512Z,7.20
2022-11-29T07:08:47.160Z,7.30
2022-11-29T07:11:16.226Z,7.30
2022-11-29T07:13:45.076Z,7.30
2022-11-29T07:16:22.570Z,7.30
2022-11-29T07:18:58.935Z,7.30
2022-11-29T07:21:46.189Z,7.30
2022-11-29T07:24:27.027Z,7.40
2022-11-29T07:27:03.702Z,7.40
2022-11-29T07:29:40.331Z,7.50
2022-11-29T07:32:17.351Z,7.50
2022-11-29T07:34:55.457Z,7.50
2022-11-29T07:37:31.738Z,7.50
2022-11-29T07:40:05.731Z,7.50
2022-11-29T07:42:44.127Z,7.50
2022-11-29T07:45:18.572Z,7.50
2022-11-29T07:47:46.972Z,7.50
2022-11-29T07:50:15.590Z,7.50
2022-11-29T07:52:43.834Z,7.50
2022-11-29T07:55:18.980Z,7.50
2022-11-29T07:57:47.430Z,7.50
2022-11-29T08:00:16.895Z,7.60
2022-11-29T08:02:45.183Z,7.50
2022-11-29T08:05:14.029Z,7.60
2022-11-29T08:07:42.905Z,7.60
2022-11-29T08:10:15.775Z,7.60
2022-11-29T08:12:45.076Z,7.70
2022-11-29T08:15:13.410Z,7.60
2022-11-29T08:17:41.788Z,7.60
2022-11-29T08:20:11.343Z,7.70
2022-11-29T08:22:39.713Z,7.70
2022-11-29T08:25:09.529Z,7.70
2022-11-29T08:27:39.860Z,7.70
2022-11-29T08:30:09.267Z,7.80
2022-11-29T08:32:37.558Z,7.70
2022-11-29T08:35:06.163Z,7.80
2022-11-29T08:37:34.358Z,7.90
2022-11-29T08:40:04.636Z,7.90
2022-11-29T08:42:32.839Z,8.00
2022-11-29T08:45:02.433Z,8.00
2022-11-29T08:47:40.236Z,8.10
2022-11-29T08:50:12.360Z,8.10
2022-11-29T08:53:01.050Z,8.20
2022-11-29T08:55:32.869Z,8.20
2022-11-29T08:58:06.703Z,8.20
2022-11-29T09:00:36.519Z,8.20
2022-11-29T09:03:24.092Z,8.30
2022-11-29T09:05:52.870Z,8.30
2022-11-29T09:08:21.288Z,8.30
2022-11-29T09:10:50.205Z,8.30
2022-11-29T09:13:18.743Z,8.40
2022-11-29T09:15:48.503Z,8.40
2022-11-29T09:18:16.724Z,8.50
2022-11-29T09:20:45.350Z,8.50
2022-11-29T09:23:14.124Z,8.50
2022-11-29T09:25:42.283Z,8.60
2022-11-29T09:28:11.545Z,8.60
2022-11-29T09:30:39.715Z,8.60
2022-11-29T09:33:09.268Z,8.60
2022-11-29T09:35:37.505Z,8.50
2022-11-29T09:38:05.862Z,8.50
2022-11-29T09:40:42.568Z,8.60
2022-11-29T09:43:23.209Z,8.70
2022-11-29T09:45:58.371Z,8.80
2022-11-29T09:48:52.616Z,8.80
2022-11-29T09:51:28.122Z,8.90
2022-11-29T09:54:12.262Z,8.90
2022-11-29T09:56:43.280Z,9.00
2022-11-29T09:59:15.555Z,9.10
2022-11-29T10:01:47.634Z,9.20
2022-11-29T10:04:20.284Z,9.20
2022-11-29T10:06:55.980Z,9.30
2022-11-29T10:09:33.352Z,9.40
2022-11-29T10:12:11.625Z,9.40
2022-11-29T10:14:47.441Z,9.50
2022-11-29T10:17:29.584Z,9.60
2022-11-29T10:20:03.627Z,9.60
2022-11-29T10:22:41.790Z,9.60
2022-11-29T10:25:16.875Z,9.70
2022-11-29T10:27:45.087Z,9.70
2022-11-29T10:30:17.210Z,9.70
2022-11-29T10:32:48.672Z,9.70
2022-11-29T10:35:20.804Z,9.60
2022-11-29T10:38:14.463Z,9.60
2022-11-29T10:40:43.705Z,9.60
2022-11-29T10:43:11.968Z,9.70
2022-11-29T10:45:45.874Z,9.70
2022-11-29T10:48:17.348Z,9.70
2022-11-29T10:50:49.510Z,9.70
2022-11-29T10:53:20.889Z,9.70
2022-11-29T10:55:54.680Z,9.60
2022-11-29T10:58:28.455Z,9.50
2022-11-29T11:00:59.561Z,9.50
2022-11-29T11:03:36.838Z,9.50
2022-11-29T11:06:13.407Z,9.50
2022-11-29T11:08:44.788Z,9.60
2022-11-29T11:11:14.250Z,9.50
2022-11-29T11:13:43.043Z,9.50
2022-11-29T11:16:18.084Z,9.40
2022-11-29T11:18:47.976Z,9.50
2022-11-29T11:21:20.027Z,9.40
2022-11-29T11:23:58.040Z,9.20
2022-11-29T11:26:27.308Z,9.20
2022-11-29T11:28:59.695Z,9.20
2022-11-29T11:31:31.944Z,9.10
2022-11-29T11:34:26.367Z,9.00
2022-11-29T11:37:12.148Z,8.80
2022-11-29T11:39:40.345Z,8.60
2022-11-29T11:42:30.084Z,8.50
2022-11-29T11:44:58.981Z,8.50
2022-11-29T11:47:29.553Z,8.50
2022-11-29T11:50:08.822Z,8.50
2022-11-29T11:52:50.125Z,8.50
2022-11-29T11:55:31.813Z,8.50
2022-11-29T11:58:10.101Z,8.60
2022-11-29T12:01:03.380Z,8.60
2022-11-29T12:03:41.040Z,8.60
2022-11-29T12:06:32.934Z,8.60
2022-11-29T12:09:07.030Z,8.70
2022-11-29T12:11:43.131Z,8.70
2022-11-29T12:14:19.336Z,8.70
2022-11-29T12:16:50.399Z,8.70
2022-11-29T12:19:23.109Z,8.70
2022-11-29T12:21:57.024Z,8.80
2022-11-29T12:24:33.881Z,8.80
2022-11-29T12:27:06.167Z,8.90
2022-11-29T12:29:36.027Z,9.00
2022-11-29T12:32:30.276Z,9.00
2022-11-29T12:35:19.353Z,8.90
2022-11-29T12:37:56.648Z,8.80
2022-11-29T12:40:33.032Z,8.80
2022-11-29T12:43:12.811Z,8.80
2022-11-29T12:45:48.471Z,8.70
2022-11-29T12:48:30.248Z,8.70
2022-11-29T12:51:07.772Z,8.70
2022-11-29T12:53:55.314Z,8.60
2022-11-29T12:56:28.237Z,8.50
2022-11-29T12:59:14.328Z,8.50
2022-11-29T13:02:01.877Z,8.40
2022-11-29T13:04:39.065Z,8.40
2022-11-29T13:07:17.337Z,8.40
2022-11-29T13:09:59.133Z,8.40
2022-11-29T13:12:36.535Z,8.30
2022-11-29T13:15:09.897Z,8.20
2022-11-29T13:17:46.979Z,8.20
2022-11-29T13:20:31.884Z,8.30
2022-11-29T13:23:12.816Z,8.30
2022-11-29T13:25:43.970Z,8.30
2022-11-29T13:28:25.232Z,8.40
2022-11-29T13:30:56.390Z,8.40
2022-11-29T13:33:29.785Z,8.40
2022-11-29T13:36:02.483Z,8.40
2022-11-29T13:38:36.652Z,8.40
2022-11-29T13:41:13.680Z,8.30
2022-11-29T13:43:47.327Z,8.30
2022-11-29T13:46:24.100Z,8.20
2022-11-29T13:48:53.987Z,8.10
2022-11-29T13:51:29.350Z,8.00
2022-11-29T13:53:59.407Z,8.00
2022-11-29T13:56:32.888Z,8.00
2022-11-29T13:59:06.922Z,7.90
2022-11-29T14:01:45.666Z,7.90
2022-11-29T14:04:25.792Z,7.90
2022-11-29T14:07:08.590Z,7.90
2022-11-29T14:09:54.011Z,7.80
2022-11-29T14:12:37.137Z,7.80
2022-11-29T14:15:19.309Z,7.90
2022-11-29T14:17:56.432Z,8.00
2022-11-29T14:21:01.314Z,8.00
2022-11-29T14:23:38.189Z,8.00
2022-11-29T14:26:28.621Z,8.00
2022-11-29T14:28:57.856Z,8.00
2022-11-29T14:31:54.439Z,8.00
2022-11-29T14:34:35.823Z,8.00
2022-11-29T14:37:09.871Z,8.00
2022-11-29T14:39:46.815Z,8.00
2022-11-29T14:42:18.792Z,7.90
2022-11-29T14:44:52.664Z,7.90
2022-11-29T14:47:26.394Z,7.80
2022-11-29T14:49:56.825Z,7.90
2022-11-29T14:52:30.762Z,7.90
2022-11-29T14:55:03.743Z,7.90
2022-11-29T14:58:15.468Z,7.80
2022-11-29T15:01:08.065Z,7.80
2022-11-29T15:03:48.354Z,7.70
2022-11-29T15:06:24.395Z,7.70
2022-11-29T15:08:58.595Z,7.70
2022-11-29T15:11:36.755Z,7.60
2022-11-29T15:14:08.572Z,7.50
2022-11-29T15:16:42.891Z,7.50
2022-11-29T15:19:45.129Z,7.50
2022-11-29T15:22:16.731Z,7.40
2022-11-29T15:24:52.951Z,7.30
2022-11-29T15:27:21.568Z,7.30
2022-11-29T15:29:50.527Z,7.40
2022-11-29T15:32:25.719Z,7.20
2022-11-29T15:34:57.158Z,7.20
2022-11-29T15:37:39.967Z,7.20
2022-11-29T15:40:13.414Z,7.20
2022-11-29T15:42:44.409Z,7.30
2022-11-29T15:45:33.795Z,7.30
2022-11-29T15:48:20.369Z,7.40
2022-11-29T15:51:05.058Z,7.40
2022-11-29T15:53:38.664Z,7.30
2022-11-29T15:56:13.703Z,7.30
2022-11-29T15:58:42.387Z,7.30
2022-11-29T16:01:22.234Z,7.40
2022-11-29T16:03:54.495Z,7.30
2022-11-29T16:06:28.928Z,7.30
2022-11-29T16:08:57.399Z,7.30
2022-11-29T16:11:28.147Z,7.30
2022-11-29T16:14:04.590Z,7.30
2022-11-29T16:16:35.545Z,7.30
2022-11-29T16:19:12.269Z,7.30
2022-11-29T16:21:45.523Z,7.30
2022-11-29T16:24:15.121Z,7.30
2022-11-29T16:26:45.525Z,7.30
2022-11-29T16:29:24.563Z,7.30
2022-11-29T16:31:54.046Z,7.20
2022-11-29T16:34:27.625Z,7.20
2022-11-29T16:37:06.360Z,7.30
2022-11-29T16:39:36.291Z,7.30
2022-11-29T16:42:14.720Z,7.30
2022-11-29T16:45:05.044Z,7.30
2022-11-29T16:47:47.718Z,7.30
2022-11-29T16:50:20.627Z,7.30
2022-11-29T16:52:56.267Z,7.30
2022-11-29T16:55:25.572Z,7.20
2022-11-29T16:57:53.781Z,7.20
2022-11-29T17:00:31.048Z,7.20
2022-11-29T17:02:59.626Z,7.20
2022-11-29T17:05:28.328Z,7.30
2022-11-29T17:07:58.057Z,7.30
2022-11-29T17:10:27.509Z,7.30
2022-11-29T17:12:55.698Z,7.30
2022-11-29T17:15:23.954Z,7.20
2022-11-29T17:17:52.175Z,7.20
2022-11-29T17:20:20.380Z,7.20
2022-11-29T17:22:48.627Z,7.20
2022-11-29T17:25:18.401Z,7.20
2022-11-29T17:27:46.652Z,7.20
2022-11-29T17:30:15.567Z,7.20
2022-11-29T17:32:43.793Z,7.10
2022-11-29T17:35:11.985Z,7.10
2022-11-29T17:37:40.167Z,7.10
2022-11-29T17:40:10.008Z,7.10
2022-11-29T17:42:39.693Z,7.20
2022-11-29T17:45:09.020Z,7.20
2022-11-29T17:47:37.263Z,7.20
2022-11-29T17:50:06.518Z,7.10
2022-11-29T17:52:34.719Z,7.20
2022-11-29T17:55:02.968Z,7.20
2022-11-29T17:57:31.133Z,7.10
2022-11-29T18:00:00.781Z,7.00
2022-11-29T18:02:29.073Z,7.00
2022-11-29T18:04:57.330Z,6.90
2022-11-29T18:07:25.585Z,6.90
2022-11-29T18:09:53.859Z,6.90
2022-11-29T18:12:22.533Z,6.90
2022-11-29T18:14:51.622Z,6.90
2022-11-29T18:17:21.196Z,6.90
2022-11-29T18:19:49.376Z,6.90
2022-11-29T18:22:17.619Z,6.90
2022-11-29T18:24:45.854Z,6.90
2022-11-29T18:27:14.054Z,6.90
2022-11-29T18:29:42.306Z,6.90
2022-11-29T18:32:10.612Z,6.80
2022-11-29T18:34:40.241Z,6.80
2022-11-29T18:37:12.414Z,6.80
2022-11-29T18:39:44.708Z,6.80
2022-11-29T18:42:13.062Z,6.70
2022-11-29T18:44:41.328Z,6.70
2022-11-29T18:47:09.517Z,6.70
2022-11-29T18:49:39.164Z,6.70
2022-11-29T18:52:07.447Z,6.70
2022-11-29T18:54:35.686Z,6.80
2022-11-29T18:57:04.334Z,6.80
2022-11-29T18:59:32.611Z,6.80
2022-11-29T19:02:00.817Z,6.80
2022-11-29T19:04:29.057Z,6.80
2022-11-29T19:06:58.645Z,6.80
2022-11-29T19:09:27.153Z,6.80
2022-11-29T19:11:55.367Z,6.80
2022-11-29T19:14:23.646Z,6.80
2022-11-29T19:16:51.893Z,6.80
2022-11-29T19:19:20.182Z,6.80
2022-11-29T19:21:48.791Z,6.80
2022-11-29T19:24:19.569Z,6.80
2022-11-29T19:26:49.010Z,6.80
2022-11-29T19:29:18.027Z,6.70
2022-11-29T19:31:46.296Z,6.70
2022-11-29T19:34:14.775Z,6.70
2022-11-29T19:36:44.479Z,6.80
2022-11-29T19:39:14.472Z,6.80
2022-11-29T19:41:45.848Z,6.70
2022-11-29T19:44:14.152Z,6.70
2022-11-29T19:46:45.648Z,6.70
2022-11-29T19:49:14.374Z,6.70
2022-11-29T19:51:43.080Z,6.70
2022-11-29T19:54:12.033Z,6.70
2022-11-29T19:56:40.486Z,6.70
2022-11-29T19:59:10.987Z,6.70
2022-11-29T20:01:42.290Z,6.60
2022-11-29T20:04:11.855Z,6.60
2022-11-29T20:06:40.868Z,6.70
2022-11-29T20:09:09.183Z,6.70
2022-11-29T20:11:37.915Z,6.70
2022-11-29T20:14:08.159Z,6.70
2022-11-29T20:16:39.259Z,6.70
2022-11-29T20:19:11.398Z,6.70
2022-11-29T20:21:44.023Z,6.70
2022-11-29T20:24:14.337Z,6.60
2022-11-29T20:26:45.156Z,6.60
2022-11-29T20:29:14.244Z,6.60
2022-11-29T20:31:50.083Z,6.60
2022-11-29T20:34:19.851Z,6.60
2022-11-29T20:37:09.321Z,6.60
2022-11-29T20:39:45.128Z,6.70
2022-11-29T20:42:46.821Z,6.60
2022-11-29T20:45:16.769Z,6.60
2022-11-29T20:47:52.623Z,6.60
2022-11-29T20:50:24.045Z,6.50
2022-11-29T20:53:04.775Z,6.50
2022-11-29T20:55:33.003Z,6.40
2022-11-29T20:58:01.526Z,6.40
2022-11-29T21:00:29.762Z,6.40
2022-11-29T21:02:59.407Z,6.40
2022-11-29T21:05:28.055Z,6.30
2022-11-29T21:07:56.319Z,6.30
2022-11-29T21:10:24.608Z,6.30
2022-11-29T21:12:53.430Z,6.30
2022-11-29T21:15:22.703Z,6.30
2022-11-29T21:17:51.455Z,6.30
2022-11-29T21:20:24.274Z,6.20
2022-11-29T21:22:59.916Z,6.20
2022-11-29T21:25:37.822Z,6.20
2022-11-29T21:28:11.841Z,6.20
2022-11-29T21:30:40.778Z,6.20
2022-11-29T21:33:10.481Z,6.10
2022-11-29T21:35:40.591Z,6.10
2022-11-29T21:38:14.447Z,6.10
2022-11-29T21:40:42.654Z,6.10
2022-11-29T21:43:10.841Z,6.10
2022-11-29T21:45:39.013Z,6.10
2022-11-29T21:48:28.991Z,6.20
2022-11-29T21:50:58.646Z,6.20
2022-11-29T21:53:28.021Z,6.20
2022-11-29T21:56:00.155Z,6.20
2022-11-29T21:58:31.503Z,6.10
2022-11-29T22:01:07.110Z,6.10
2022-11-29T22:03:35.367Z,6.10
2022-11-29T22:06:07.131Z,6.10
2022-11-29T22:08:35.972Z,6.00
2022-11-29T22:11:06.000Z,6.00
2022-11-29T22:13:34.224Z,5.90
2022-11-29T22:16:07.913Z,5.90
2022-11-29T22:18:36.262Z,6.00
2022-11-29T22:21:08.164Z,6.00
2022-11-29T22:23:36.378Z,6.00
2022-11-29T22:26:06.096Z,6.10
2022-11-29T22:28:35.483Z,6.10
2022-11-29T22:31:06.769Z,6.10
2022-11-29T22:33:35.647Z,6.00
2022-11-29T22:36:07.249Z,6.10
2022-11-29T22:38:35.933Z,6.10
2022-11-29T22:41:05.313Z,6.00
2022-11-29T22:43:34.276Z,6.00
2022-11-29T22:46:06.995Z,6.00
2022-11-29T22:48:38.761Z,5.90
2022-11-29T22:51:10.451Z,6.00
2022-11-29T22:53:40.702Z,6.00
2022-11-29T22:56:11.341Z,6.00
2022-11-29T22:58:40.091Z,6.00
2022-11-29T23:01:10.697Z,6.00
2022-11-29T23:03:40.445Z,6.10
2022-11-29T23:06:11.944Z,6.00
2022-11-29T23:08:41.232Z,6.10
2022-11-29T23:11:12.451Z,6.10
2022-11-29T23:13:41.859Z,6.00
2022-11-29T23:16:12.875Z,6.00
2022-11-29T23:18:42.321Z,6.00
2022-11-29T23:21:14.590Z,6.00
2022-11-29T23:23:43.793Z,6.00
2022-11-29T23:26:19.640Z,5.90
2022-11-29T23:28:48.426Z,5.80
2022-11-29T23:31:17.211Z,5.80
2022-11-29T23:33:45.641Z,5.80
2022-11-29T23:36:16.463Z,5.80
2022-11-29T23:38:44.966Z,5.80
2022-11-29T23:41:14.363Z,5.80
2022-11-29T23:43:43.219Z,5.80
2022-11-29T23:46:14.363Z,5.80
2022-11-29T23:48:42.820Z,5.80
2022-11-29T23:51:11.543Z,5.70
2022-11-29T23:53:41.295Z,5.80
2022-11-29T23:56:12.807Z,5.90
2022-11-29T23:58:41.384Z,5.80
